Paulding, Mississippi
Current Conditions -  °F | °C
As of 8:58 PM on Tuesday 25 Nov 2014 (Local Time) from KMEI Reporting Station
Clear Clear  
Wind Chill: 42°   Ceiling: Unl
Heat Index: 44°   Visibility: 10mi
Dew Point: 30°   Wind: 5mph
Humidity: 58%   Direction: 290°WNW
Pressure: 30.21"   Gusts: NA
Location:  32.03°N, 89.04°W
Report Text: KMEI 260258Z 29004KT 10SM CLR 07/M01 A3021 RMK AO2 PRESRR SLP228 T00671011 51013
Loading
Personal Weather Stations






























Interactive Weather Map New forecast layout! Learn more

10-Day Weather Forecast

Advertisements
Track Severe Weather on mobile